createdAt,value
2019-03-26T00:02:24.790Z,102457.31
2019-03-26T00:07:31.017Z,102459.16
2019-03-26T00:12:37.283Z,102455.39
2019-03-26T00:17:43.774Z,102452.33
2019-03-26T00:22:50.046Z,102457.32
2019-03-26T00:27:56.271Z,102468.98
2019-03-26T00:33:02.529Z,102466.05
2019-03-26T00:38:08.775Z,102468.21
2019-03-26T00:43:15.019Z,102473.56
2019-03-26T00:48:21.271Z,102466.49
2019-03-26T00:53:27.694Z,102471.53
2019-03-26T00:58:33.970Z,102482.31
2019-03-26T01:03:40.238Z,102481.37
2019-03-26T01:08:46.482Z,102479.30
2019-03-26T01:13:52.697Z,102482.88
2019-03-26T01:18:59.021Z,102485.81
2019-03-26T01:24:05.310Z,102484.60
2019-03-26T01:29:11.559Z,102482.45
2019-03-26T01:34:17.835Z,102483.41
2019-03-26T01:39:24.134Z,102481.23
2019-03-26T01:44:30.401Z,102485.47
2019-03-26T01:49:36.655Z,102491.45
2019-03-26T01:54:42.876Z,102498.72
2019-03-26T01:59:49.091Z,102499.48
2019-03-26T02:05:00.196Z,102501.94
2019-03-26T02:10:03.332Z,102512.81
2019-03-26T02:15:11.326Z,102512.91
2019-03-26T02:20:17.577Z,102518.72
2019-03-26T02:25:23.842Z,102508.67
2019-03-26T02:30:30.408Z,102513.47
2019-03-26T02:35:36.752Z,102511.61
2019-03-26T02:40:43.083Z,102517.37
2019-03-26T02:45:49.368Z,102517.63
2019-03-26T02:50:55.582Z,102519.23
2019-03-26T02:56:01.802Z,102522.67
2019-03-26T03:01:08.116Z,102521.04
2019-03-26T03:06:14.486Z,102511.23
2019-03-26T03:11:20.718Z,102507.69
2019-03-26T03:16:27.065Z,102508.29
2019-03-26T03:21:33.314Z,102513.66
2019-03-26T03:26:39.549Z,102523.23
2019-03-26T03:31:45.767Z,102523.35
2019-03-26T03:36:51.995Z,102524.00
2019-03-26T03:41:58.303Z,102527.47
2019-03-26T03:47:04.548Z,102532.02
2019-03-26T03:52:10.825Z,102536.75
2019-03-26T03:57:18.031Z,102537.39
2019-03-26T04:02:24.263Z,102540.49
2019-03-26T04:07:30.515Z,102541.52
2019-03-26T04:12:36.839Z,102548.91
2019-03-26T04:17:43.078Z,102551.54
2019-03-26T04:22:49.301Z,102547.67
2019-03-26T04:27:55.525Z,102551.26
2019-03-26T04:33:01.946Z,102551.94
2019-03-26T04:38:08.204Z,102543.14
2019-03-26T04:43:14.493Z,102531.98
2019-03-26T04:48:20.748Z,102545.74
2019-03-26T04:53:27.005Z,102538.77
2019-03-26T04:58:33.368Z,102544.17
2019-03-26T05:03:39.762Z,102541.19
2019-03-26T05:08:46.116Z,102547.95
2019-03-26T05:13:52.396Z,102554.64
2019-03-26T05:18:58.771Z,102550.25
2019-03-26T05:24:05.040Z,102546.89
2019-03-26T05:29:11.250Z,102544.94
2019-03-26T05:34:17.471Z,102543.23
2019-03-26T05:39:23.704Z,102543.27
2019-03-26T05:44:29.987Z,102541.95
2019-03-26T05:49:36.282Z,102541.02
2019-03-26T05:54:42.613Z,102546.81
2019-03-26T05:59:49.130Z,102547.63
2019-03-26T06:04:55.532Z,102549.03
2019-03-26T06:10:01.738Z,102564.30
2019-03-26T06:15:08.343Z,102564.16
2019-03-26T06:20:14.614Z,102573.91
2019-03-26T06:25:21.093Z,102583.40
2019-03-26T06:30:27.318Z,102579.23
2019-03-26T06:35:33.637Z,102575.63
2019-03-26T06:40:39.974Z,102583.75
2019-03-26T06:45:46.902Z,102580.62
2019-03-26T06:50:53.222Z,102588.36
2019-03-26T06:55:59.517Z,102597.77
2019-03-26T07:01:05.748Z,102603.56
2019-03-26T07:06:11.991Z,102610.13
2019-03-26T07:11:18.241Z,102611.94
2019-03-26T07:16:24.580Z,102618.30
2019-03-26T07:21:30.886Z,102629.93
2019-03-26T07:26:37.139Z,102622.77
2019-03-26T07:31:43.373Z,102630.83
2019-03-26T07:36:49.665Z,102632.25
2019-03-26T07:41:55.907Z,102640.97
2019-03-26T07:47:02.125Z,102645.65
2019-03-26T07:52:08.442Z,102641.81
2019-03-26T07:57:14.727Z,102644.77
2019-03-26T08:02:20.990Z,102643.55
2019-03-26T08:07:27.276Z,102632.09
2019-03-26T08:12:33.626Z,102636.52
2019-03-26T08:17:39.917Z,102636.91
2019-03-26T08:22:46.212Z,102633.09
2019-03-26T08:27:52.478Z,102637.97
2019-03-26T08:32:58.858Z,102636.06
2019-03-26T08:38:12.350Z,102616.75
2019-03-26T08:43:13.269Z,102597.30
2019-03-26T08:48:19.493Z,102590.01
2019-03-26T08:53:25.934Z,102586.25
2019-03-26T08:58:32.163Z,102581.66
2019-03-26T09:03:38.388Z,102572.58
2019-03-26T09:08:44.645Z,102573.63
2019-03-26T09:13:50.886Z,102565.19
2019-03-26T09:18:57.184Z,102561.38
2019-03-26T09:24:03.423Z,102565.91
2019-03-26T09:29:09.713Z,102571.79
2019-03-26T09:34:16.020Z,102576.46
2019-03-26T09:39:22.264Z,102589.00
2019-03-26T09:44:28.604Z,102598.44
2019-03-26T09:49:34.834Z,102597.75
2019-03-26T09:54:42.975Z,102606.28
2019-03-26T09:59:49.207Z,102607.06
2019-03-26T10:04:55.478Z,102592.80
2019-03-26T10:10:01.776Z,102597.48
2019-03-26T10:15:08.217Z,102598.25
2019-03-26T10:20:14.514Z,102594.75
2019-03-26T10:25:20.741Z,102604.23
2019-03-26T10:30:38.156Z,102597.11
2019-03-26T10:35:44.569Z,102601.77
2019-03-26T10:40:50.799Z,102615.15
2019-03-26T10:45:57.063Z,102612.77
2019-03-26T10:51:03.446Z,102617.26
2019-03-26T10:56:09.916Z,102614.30
2019-03-26T11:01:16.162Z,102616.45
2019-03-26T11:06:22.405Z,102615.80
2019-03-26T11:11:28.803Z,102605.13
2019-03-26T11:16:35.052Z,102593.62
2019-03-26T11:21:41.499Z,102593.96
2019-03-26T11:26:47.833Z,102587.30
2019-03-26T11:31:54.303Z,102596.87
2019-03-26T11:37:00.798Z,102599.43
2019-03-26T11:42:07.090Z,102590.80
2019-03-26T11:47:13.348Z,102584.81
2019-03-26T11:52:19.598Z,102578.53
2019-03-26T11:57:25.828Z,102572.39
2019-03-26T12:02:32.225Z,102561.08
2019-03-26T12:07:39.126Z,102558.70
2019-03-26T12:12:45.487Z,102564.52
2019-03-26T12:17:51.767Z,102564.51
2019-03-26T12:22:58.082Z,102559.70
2019-03-26T12:28:04.377Z,102555.29
2019-03-26T12:33:10.687Z,102541.05
2019-03-26T12:38:21.225Z,102536.36
2019-03-26T12:43:27.539Z,102532.52
2019-03-26T12:48:33.827Z,102526.03
2019-03-26T12:53:40.192Z,102526.48
2019-03-26T12:58:46.622Z,102520.84
2019-03-26T13:03:52.927Z,102522.88
2019-03-26T13:08:59.211Z,102522.89
2019-03-26T13:14:05.561Z,102511.97
2019-03-26T13:19:11.784Z,102516.76
2019-03-26T13:24:18.041Z,102512.94
2019-03-26T13:29:24.367Z,102510.77
2019-03-26T13:34:30.614Z,102514.16
2019-03-26T13:39:36.857Z,102512.67
2019-03-26T13:44:43.097Z,102507.46
2019-03-26T13:49:49.594Z,102508.32
2019-03-26T13:54:55.850Z,102514.42
2019-03-26T14:00:02.110Z,102518.63
2019-03-26T14:05:23.923Z,102519.48
2019-03-26T14:10:40.267Z,102519.05
2019-03-26T14:15:38.221Z,102507.52
2019-03-26T14:20:44.553Z,102509.09
2019-03-26T14:25:50.876Z,102510.27
2019-03-26T14:30:57.126Z,102505.42
2019-03-26T14:36:03.392Z,102505.91
2019-03-26T14:41:09.666Z,102507.85
2019-03-26T14:46:16.171Z,102512.03
2019-03-26T14:51:23.218Z,102511.75
2019-03-26T14:56:29.623Z,102513.86
2019-03-26T15:01:35.949Z,102518.81
2019-03-26T15:06:42.224Z,102522.09
2019-03-26T15:11:48.501Z,102524.66
2019-03-26T15:16:54.856Z,102519.14
2019-03-26T15:22:01.200Z,102511.59
2019-03-26T15:27:07.519Z,102501.55
2019-03-26T15:32:13.769Z,102500.96
2019-03-26T15:37:20.035Z,102492.27
2019-03-26T15:42:26.382Z,102493.37
2019-03-26T15:47:32.845Z,102495.86
2019-03-26T15:52:42.159Z,102492.95
2019-03-26T15:57:47.200Z,102491.82
2019-03-26T16:02:53.555Z,102484.67
2019-03-26T16:08:00.735Z,102487.89
2019-03-26T16:13:07.232Z,102485.02
2019-03-26T16:18:13.583Z,102492.81
2019-03-26T16:23:20.025Z,102493.42
2019-03-26T16:28:26.324Z,102500.13
2019-03-26T16:33:32.601Z,102496.80
2019-03-26T16:38:38.945Z,102497.34
2019-03-26T16:43:45.250Z,102508.80
2019-03-26T16:48:51.559Z,102507.78
2019-03-26T16:53:58.071Z,102509.81
2019-03-26T16:59:04.292Z,102515.91
2019-03-26T17:04:10.626Z,102521.47
2019-03-26T17:09:16.834Z,102515.94
2019-03-26T17:14:23.139Z,102519.89
2019-03-26T17:19:32.455Z,102525.03
2019-03-26T17:24:37.503Z,102520.47
2019-03-26T17:29:43.800Z,102529.48
2019-03-26T17:34:50.191Z,102521.58
2019-03-26T17:39:56.449Z,102528.73
2019-03-26T17:45:02.786Z,102530.11
2019-03-26T17:50:09.214Z,102531.50
2019-03-26T17:55:15.464Z,102529.03
2019-03-26T18:00:39.604Z,102527.19
2019-03-26T18:05:45.885Z,102531.30
2019-03-26T18:10:52.380Z,102531.87
2019-03-26T18:15:58.628Z,102538.63
2019-03-26T18:21:04.884Z,102545.52
2019-03-26T18:26:11.089Z,102550.81
2019-03-26T18:31:17.427Z,102554.55
2019-03-26T18:36:23.706Z,102561.34
2019-03-26T18:41:29.934Z,102561.31
2019-03-26T18:46:36.266Z,102564.09
2019-03-26T18:51:42.596Z,102562.35
2019-03-26T18:56:49.015Z,102558.66
2019-03-26T19:01:55.420Z,102554.72
2019-03-26T19:07:01.785Z,102558.25
2019-03-26T19:12:08.164Z,102559.44
2019-03-26T19:17:14.589Z,102563.07
2019-03-26T19:22:21.103Z,102561.65
2019-03-26T19:27:27.660Z,102564.38
2019-03-26T19:32:34.011Z,102565.50
2019-03-26T19:37:40.666Z,102567.37
2019-03-26T19:42:46.893Z,102563.53
2019-03-26T19:47:55.886Z,102575.48
2019-03-26T19:53:02.152Z,102579.97
2019-03-26T19:58:08.434Z,102579.70
2019-03-26T20:03:14.687Z,102591.61
2019-03-26T20:08:21.190Z,102592.73
2019-03-26T20:13:27.645Z,102601.50
2019-03-26T20:18:34.007Z,102609.92
2019-03-26T20:23:40.366Z,102623.74
2019-03-26T20:28:46.822Z,102623.97
2019-03-26T20:33:53.199Z,102618.52
2019-03-26T20:38:59.557Z,102627.62
2019-03-26T20:44:05.842Z,102628.64
2019-03-26T20:49:12.055Z,102622.55
2019-03-26T20:54:18.336Z,102623.16
2019-03-26T20:59:24.547Z,102617.42
2019-03-26T21:04:31.013Z,102615.30
2019-03-26T21:09:37.245Z,102621.12
2019-03-26T21:14:43.842Z,102624.09
2019-03-26T21:19:50.215Z,102621.93
2019-03-26T21:24:56.454Z,102622.69
2019-03-26T21:30:10.782Z,102623.44
2019-03-26T21:35:10.732Z,102624.94
2019-03-26T21:40:16.985Z,102625.47
2019-03-26T21:45:37.681Z,102642.92
2019-03-26T21:50:43.969Z,102643.69
2019-03-26T21:55:50.309Z,102648.47
2019-03-26T22:00:56.729Z,102644.16
2019-03-26T22:06:02.981Z,102646.69
2019-03-26T22:11:09.305Z,102644.39
2019-03-26T22:16:15.584Z,102644.69
2019-03-26T22:21:21.837Z,102644.13
2019-03-26T22:26:28.195Z,102646.33
2019-03-26T22:31:34.500Z,102655.02
2019-03-26T22:36:40.804Z,102647.28
2019-03-26T22:41:47.059Z,102642.92
2019-03-26T22:46:53.287Z,102645.24
2019-03-26T22:51:59.630Z,102645.12
2019-03-26T22:57:05.867Z,102642.64
2019-03-26T23:02:12.173Z,102640.81
2019-03-26T23:07:18.436Z,102643.64
2019-03-26T23:12:24.693Z,102640.66
2019-03-26T23:17:30.969Z,102644.28
2019-03-26T23:22:37.296Z,102638.61
2019-03-26T23:27:43.639Z,102638.69
2019-03-26T23:32:49.890Z,102640.64
2019-03-26T23:37:56.207Z,102638.61
2019-03-26T23:43:02.496Z,102631.88
2019-03-26T23:48:08.731Z,102642.84
2019-03-26T23:53:14.946Z,102641.95
2019-03-26T23:58:21.214Z,102652.07
